Tenerife > ESTACION METEOROLÓGICA Izaña

DATOS ACTUALES Online

Ultima actulizacion 56 minutos

10.6 ºC

Temperatura

95

Humedad (%)

Presión (mb)

0

Precipitación (mm)

5.6 W

Viento (Km/h)

DATOS DIARIOS

Temperatura últimas 24 horas (ºC)

Humedad últimas 24 horas (%)

Presión atmosférica últimas 24 horas (mb)

Precipitaciones últimas 23 horas (mm)

Viento últimas 24 horas (Km/h)

Hora Temperatura (°C) ºC Precipitación (mm) mm Presión (mb) mb Humedad (%) % Viento (Km/h) km/h
25 - 00:00 14 0 0 67 4.6 W
25 - 01:00 13.3 0 0 68 5.7 W
25 - 02:00 12.8 0 0 69 6.8 SW
25 - 03:00 11.3 0 0 87 7.8 SW
25 - 04:00 10.7 1.6 0 95 7.9 SW
25 - 05:00 11 2.8 0 88 5.7 S
25 - 06:00 10.6 3.6 0 94 5.9 SW
25 - 07:00 10.1 4.6 0 100 8.1 S
25 - 08:00 9.9 5.8 0 100 9.2 S
25 - 09:00 10.5 7.6 0 100 9.3 S
25 - 10:00 10.5 9 0 100 9.6 SW
25 - 11:00 10.4 11.4 0 100 12 SW
25 - 12:00 10.5 18.8 0 100 14 S
25 - 13:00 10.5 26.2 0 100 10.5 SW
25 - 14:00 10.6 30.4 0 100 8.1 SW
25 - 15:00 11.4 33 0 100 7.6 W
25 - 16:00 11.5 34.4 0 100 5.3 W
25 - 17:00 10.9 35 0 100 9.4 W
25 - 18:00 10.8 36 0 100 8.2 W
25 - 19:00 10.4 37.4 0 99 5.5 SW
25 - 20:00 10.4 38.6 0 96 7.4 SW
25 - 21:00 10.4 39 0 93 11.6 W
25 - 22:00 10.3 39 0 94 8.7 W
25 - 23:00 10.3 0 0 93 6.4 W
26 - 00:00 10.6 0 0 95 5.6 W
Apalmet utiliza cookies propias y de terceros para mejorar la usabilidad y la experiencia web. Política de cookies.